createdAt,value
2023-09-23T00:01:59.118Z,68.24
2023-09-23T00:04:31.128Z,68.06
2023-09-23T00:07:01.378Z,68.14
2023-09-23T00:09:31.717Z,68.26
2023-09-23T00:12:01.972Z,67.97
2023-09-23T00:14:34.990Z,68.20
2023-09-23T00:17:05.349Z,67.81
2023-09-23T00:19:35.860Z,68.13
2023-09-23T00:22:07.272Z,68.17
2023-09-23T00:24:38.376Z,68.24
2023-09-23T00:27:09.072Z,68.00
2023-09-23T00:29:42.130Z,68.12
2023-09-23T00:32:14.027Z,68.17
2023-09-23T00:34:44.759Z,68.11
2023-09-23T00:37:14.980Z,68.21
2023-09-23T00:39:45.228Z,68.11
2023-09-23T00:42:17.173Z,68.08
2023-09-23T00:44:50.370Z,68.14
2023-09-23T00:47:22.400Z,68.08
2023-09-23T00:49:53.928Z,68.27
2023-09-23T00:52:24.532Z,68.33
2023-09-23T00:54:55.631Z,68.25
2023-09-23T00:57:25.646Z,68.23
2023-09-23T00:59:58.812Z,68.17
2023-09-23T01:02:30.411Z,68.38
2023-09-23T01:05:00.731Z,68.09
2023-09-23T01:07:32.755Z,68.26
2023-09-23T01:10:04.834Z,68.12
2023-09-23T01:12:35.328Z,68.23
2023-09-23T01:15:19.521Z,68.33
2023-09-23T01:17:53.565Z,68.24
2023-09-23T01:20:23.827Z,68.24
2023-09-23T01:22:59.470Z,68.27
2023-09-23T01:25:29.850Z,68.32
2023-09-23T01:27:59.971Z,68.18
2023-09-23T01:30:30.707Z,68.23
2023-09-23T01:33:01.195Z,68.24
2023-09-23T01:35:33.061Z,68.28
2023-09-23T01:38:06.871Z,68.41
2023-09-23T01:40:41.001Z,68.28
2023-09-23T01:43:11.249Z,68.50
2023-09-23T01:45:41.484Z,68.37
2023-09-23T01:48:12.309Z,68.35
2023-09-23T01:50:43.174Z,68.54
2023-09-23T01:53:20.697Z,68.26
2023-09-23T01:55:51.037Z,68.47
2023-09-23T01:58:21.422Z,68.30
2023-09-23T02:00:52.110Z,68.32
2023-09-23T02:03:24.301Z,68.15
2023-09-23T02:05:54.978Z,68.32
2023-09-23T02:08:27.777Z,68.34
2023-09-23T02:10:58.025Z,68.39
2023-09-23T02:13:29.782Z,68.25
2023-09-23T02:16:01.121Z,68.14
2023-09-23T02:18:31.407Z,68.34
2023-09-23T02:21:01.589Z,68.44
2023-09-23T02:23:34.690Z,68.30
2023-09-23T02:26:05.102Z,68.36
2023-09-23T02:28:35.333Z,68.36
2023-09-23T02:31:05.548Z,68.55
2023-09-23T02:33:35.917Z,68.24
2023-09-23T02:36:07.096Z,68.33
2023-09-23T02:38:39.512Z,68.33
2023-09-23T02:41:09.792Z,68.28
2023-09-23T02:43:41.622Z,68.34
2023-09-23T02:46:11.898Z,68.35
2023-09-23T02:48:42.140Z,68.21
2023-09-23T02:51:14.381Z,68.42
2023-09-23T02:53:47.168Z,68.49
2023-09-23T02:56:17.426Z,68.46
2023-09-23T02:58:49.584Z,68.48
2023-09-23T03:01:20.288Z,68.48
2023-09-23T03:03:50.882Z,68.38
2023-09-23T03:06:21.460Z,68.27
2023-09-23T03:08:55.950Z,68.27
2023-09-23T03:11:28.380Z,68.50
2023-09-23T03:13:58.691Z,68.55
2023-09-23T03:16:32.705Z,68.41
2023-09-23T03:19:12.333Z,68.47
2023-09-23T03:21:44.288Z,68.51
2023-09-23T03:24:17.157Z,68.42
2023-09-23T03:26:48.078Z,68.64
2023-09-23T03:29:19.972Z,68.66
2023-09-23T03:31:50.368Z,68.62
2023-09-23T03:34:23.091Z,68.50
2023-09-23T03:36:55.101Z,68.55
2023-09-23T03:39:28.380Z,68.54
2023-09-23T03:41:58.663Z,68.44
2023-09-23T03:44:28.783Z,68.71
2023-09-23T03:47:01.718Z,68.58
2023-09-23T03:49:32.569Z,68.64
2023-09-23T03:52:07.107Z,68.42
2023-09-23T03:54:39.864Z,68.48
2023-09-23T03:57:10.294Z,68.38
2023-09-23T03:59:40.866Z,68.40
2023-09-23T04:02:11.094Z,68.57
2023-09-23T04:04:41.853Z,68.45
2023-09-23T04:07:12.011Z,68.42
2023-09-23T04:09:44.823Z,68.48
2023-09-23T04:12:15.011Z,68.30
2023-09-23T04:14:45.375Z,68.28
2023-09-23T04:17:16.264Z,68.47
2023-09-23T04:19:46.632Z,68.58
2023-09-23T04:22:16.862Z,68.42
2023-09-23T04:24:49.707Z,68.68
2023-09-23T04:27:21.528Z,68.64
2023-09-23T04:29:51.774Z,68.51
2023-09-23T04:32:22.047Z,68.61
2023-09-23T04:34:52.329Z,68.67
2023-09-23T04:37:22.508Z,68.42
2023-09-23T04:39:55.292Z,68.48
2023-09-23T04:42:25.621Z,68.35
2023-09-23T04:44:57.076Z,68.55
2023-09-23T04:47:28.096Z,68.64
2023-09-23T04:50:00.316Z,68.52
2023-09-23T04:52:31.338Z,68.71
2023-09-23T04:55:04.458Z,68.64
2023-09-23T04:57:35.265Z,68.50
2023-09-23T05:00:06.301Z,68.63
2023-09-23T05:02:37.518Z,68.28
2023-09-23T05:05:11.471Z,68.01
2023-09-23T05:07:42.012Z,68.03
2023-09-23T05:10:15.660Z,67.95
2023-09-23T05:12:47.045Z,67.63
2023-09-23T05:15:18.730Z,67.93
2023-09-23T05:17:50.783Z,67.91
2023-09-23T05:20:21.832Z,68.42
2023-09-23T05:22:51.783Z,68.30
2023-09-23T05:25:26.236Z,68.64
2023-09-23T05:27:58.357Z,68.91
2023-09-23T05:30:30.255Z,68.72
2023-09-23T05:33:00.497Z,68.82
2023-09-23T05:35:31.873Z,68.70
2023-09-23T05:38:02.038Z,69.07
2023-09-23T05:40:38.171Z,68.79
2023-09-23T05:43:08.553Z,68.90
2023-09-23T05:45:40.121Z,68.89
2023-09-23T05:48:11.432Z,68.98
2023-09-23T05:50:41.934Z,68.78
2023-09-23T05:53:12.159Z,68.71
2023-09-23T05:55:45.388Z,68.94
2023-09-23T05:58:15.922Z,68.95
2023-09-23T06:00:47.481Z,69.06
2023-09-23T06:03:19.191Z,69.16
2023-09-23T06:05:49.504Z,69.17
2023-09-23T06:08:19.820Z,69.00
2023-09-23T06:10:53.769Z,69.13
2023-09-23T06:13:24.069Z,69.16
2023-09-23T06:15:54.392Z,69.28
2023-09-23T06:18:25.241Z,69.14
2023-09-23T06:21:01.528Z,69.11
2023-09-23T06:23:32.098Z,69.19
2023-09-23T06:26:07.616Z,68.94
2023-09-23T06:28:38.389Z,69.14
2023-09-23T06:31:11.577Z,69.10
2023-09-23T06:33:41.978Z,69.28
2023-09-23T06:36:12.313Z,69.11
2023-09-23T06:38:42.969Z,69.28
2023-09-23T06:41:16.194Z,69.45
2023-09-23T06:43:46.664Z,69.48
2023-09-23T06:46:17.125Z,69.80
2023-09-23T06:48:47.577Z,70.02
2023-09-23T06:51:17.858Z,69.90
2023-09-23T06:53:50.401Z,65.20
2023-09-23T06:56:23.722Z,66.88
2023-09-23T06:58:54.298Z,68.30
2023-09-23T07:01:25.516Z,68.71
2023-09-23T07:03:56.100Z,68.68
2023-09-23T07:06:26.683Z,68.77
2023-09-23T07:08:57.124Z,68.77
2023-09-23T07:11:30.103Z,68.83
2023-09-23T07:14:02.330Z,68.87
2023-09-23T07:16:32.801Z,68.79
2023-09-23T07:19:03.372Z,68.71
2023-09-23T07:21:33.904Z,68.88
2023-09-23T07:24:07.677Z,68.75
2023-09-23T07:26:42.673Z,68.84
2023-09-23T07:29:13.712Z,68.90
2023-09-23T07:31:44.135Z,68.78
2023-09-23T07:34:15.639Z,68.87
2023-09-23T07:36:46.781Z,68.61
2023-09-23T07:39:17.242Z,68.47
2023-09-23T07:41:50.263Z,68.32
2023-09-23T07:44:20.675Z,68.40
2023-09-23T07:46:52.271Z,68.24
2023-09-23T07:49:22.607Z,67.95
2023-09-23T07:51:54.730Z,67.81
2023-09-23T07:54:25.150Z,67.98
2023-09-23T07:56:58.402Z,67.92
2023-09-23T07:59:28.902Z,67.93
2023-09-23T08:01:59.565Z,67.89
2023-09-23T08:04:29.955Z,67.94
2023-09-23T08:07:00.299Z,67.84
2023-09-23T08:09:30.658Z,67.95
2023-09-23T08:12:03.647Z,67.81
2023-09-23T08:14:34.304Z,67.82
2023-09-23T08:17:04.819Z,67.99
2023-09-23T08:19:35.315Z,68.01
2023-09-23T08:22:05.999Z,67.86
2023-09-23T08:24:36.493Z,67.92
2023-09-23T08:27:09.382Z,66.91
2023-09-23T08:29:39.656Z,65.98
2023-09-23T08:32:10.229Z,66.09
2023-09-23T08:34:43.041Z,66.66
2023-09-23T08:37:14.777Z,67.21
2023-09-23T08:39:45.303Z,67.00
2023-09-23T08:42:20.843Z,67.14
2023-09-23T08:44:54.071Z,66.92
2023-09-23T08:47:24.886Z,66.76
2023-09-23T08:49:56.521Z,67.10
2023-09-23T08:52:29.136Z,67.16
2023-09-23T08:55:00.331Z,67.33
2023-09-23T08:57:33.429Z,67.21
2023-09-23T09:00:09.274Z,67.36
2023-09-23T09:02:39.814Z,67.01
2023-09-23T09:05:10.867Z,66.95
2023-09-23T09:07:41.301Z,66.91
2023-09-23T09:10:12.521Z,66.77
2023-09-23T09:12:45.647Z,66.86
2023-09-23T09:15:16.045Z,66.88
2023-09-23T09:17:47.025Z,66.61
2023-09-23T09:20:17.881Z,66.64
2023-09-23T09:22:50.072Z,62.82
2023-09-23T09:25:22.705Z,61.54
2023-09-23T09:27:56.042Z,63.35
2023-09-23T09:30:26.535Z,65.12
2023-09-23T09:33:03.828Z,65.64
2023-09-23T09:35:37.821Z,65.57
2023-09-23T09:38:17.597Z,65.73
2023-09-23T09:40:50.494Z,65.71
2023-09-23T09:43:26.170Z,65.90
2023-09-23T09:45:57.831Z,65.95
2023-09-23T09:48:31.898Z,62.87
2023-09-23T09:51:03.284Z,64.26
2023-09-23T09:53:34.653Z,65.09
2023-09-23T09:56:06.299Z,65.32
2023-09-23T09:58:45.091Z,65.74
2023-09-23T10:01:19.444Z,65.60
2023-09-23T10:03:53.272Z,65.79
2023-09-23T10:06:24.633Z,64.57
2023-09-23T10:08:55.429Z,65.12
2023-09-23T10:11:36.469Z,63.45
2023-09-23T10:14:19.848Z,62.04
2023-09-23T10:16:54.287Z,62.92
2023-09-23T10:19:34.421Z,64.73
2023-09-23T10:22:19.326Z,64.92
2023-09-23T10:25:06.144Z,65.73
2023-09-23T10:27:38.393Z,65.95
2023-09-23T10:30:12.487Z,65.91
2023-09-23T10:32:47.828Z,66.20
2023-09-23T10:35:25.733Z,66.38
2023-09-23T10:37:56.780Z,66.09
2023-09-23T10:40:27.331Z,66.21
2023-09-23T10:42:57.730Z,66.18
2023-09-23T10:45:30.709Z,66.29
2023-09-23T10:48:01.253Z,66.42
2023-09-23T10:50:31.940Z,66.46
2023-09-23T10:53:02.549Z,66.54
2023-09-23T10:55:36.269Z,66.45
2023-09-23T10:58:08.438Z,66.49
2023-09-23T11:00:42.185Z,66.58
2023-09-23T11:03:14.377Z,66.43
2023-09-23T11:05:45.578Z,66.61
2023-09-23T11:08:16.154Z,66.59
2023-09-23T11:10:47.941Z,66.71
2023-09-23T11:13:19.283Z,66.60
2023-09-23T11:15:52.340Z,66.68
2023-09-23T11:18:23.070Z,66.71
2023-09-23T11:20:53.673Z,66.98
2023-09-23T11:23:23.892Z,67.16
2023-09-23T11:25:55.629Z,67.07
2023-09-23T11:28:27.213Z,67.04
2023-09-23T11:31:01.370Z,66.94
2023-09-23T11:33:31.753Z,66.90
2023-09-23T11:36:02.087Z,66.97
2023-09-23T11:38:39.095Z,66.85
2023-09-23T11:41:09.553Z,67.02
2023-09-23T11:43:39.921Z,66.89
2023-09-23T11:46:13.333Z,67.16
2023-09-23T11:48:48.859Z,66.92
2023-09-23T11:51:22.798Z,66.92
2023-09-23T11:53:54.097Z,67.01
2023-09-23T11:56:26.069Z,67.16
2023-09-23T11:59:07.659Z,64.45
2023-09-23T12:01:43.166Z,62.53
2023-09-23T12:04:13.724Z,63.17
2023-09-23T12:06:46.839Z,64.60
2023-09-23T12:09:17.955Z,64.94
2023-09-23T12:11:50.737Z,65.31
2023-09-23T12:14:22.143Z,65.58
2023-09-23T12:16:55.369Z,65.93
2023-09-23T12:19:27.505Z,62.76
2023-09-23T12:21:59.386Z,61.61
2023-09-23T12:24:30.404Z,59.95
2023-09-23T12:27:01.297Z,59.46
2023-09-23T12:29:31.767Z,61.70
2023-09-23T12:32:05.680Z,64.08
2023-09-23T12:34:37.180Z,64.15
2023-09-23T12:37:07.623Z,65.06
2023-09-23T12:39:38.176Z,64.90
2023-09-23T12:42:09.162Z,64.66
2023-09-23T12:44:43.073Z,64.90
2023-09-23T12:47:16.499Z,65.59
2023-09-23T12:49:50.808Z,65.66
2023-09-23T12:52:21.402Z,65.59
2023-09-23T12:54:52.074Z,65.73
2023-09-23T12:57:22.955Z,63.85
2023-09-23T12:59:53.564Z,63.29
2023-09-23T13:02:26.684Z,62.59
2023-09-23T13:04:57.519Z,61.97
2023-09-23T13:07:27.978Z,61.46
2023-09-23T13:09:58.436Z,60.31
2023-09-23T13:12:29.819Z,61.06
2023-09-23T13:15:00.262Z,61.30
2023-09-23T13:17:33.659Z,61.58
2023-09-23T13:20:04.578Z,62.66
2023-09-23T13:22:34.940Z,63.91
2023-09-23T13:25:05.243Z,62.03
2023-09-23T13:27:35.890Z,62.60
2023-09-23T13:30:06.383Z,63.96
2023-09-23T13:32:39.662Z,64.08
2023-09-23T13:35:12.803Z,62.22
2023-09-23T13:37:44.579Z,62.24
2023-09-23T13:40:15.342Z,61.67
2023-09-23T13:42:45.701Z,60.34
2023-09-23T13:45:15.998Z,61.27
2023-09-23T13:47:49.460Z,62.47
2023-09-23T13:50:20.022Z,63.51
2023-09-23T13:52:51.100Z,64.21
2023-09-23T13:55:22.542Z,63.25
2023-09-23T13:57:53.220Z,63.81
2023-09-23T14:00:24.030Z,63.99
2023-09-23T14:02:57.748Z,64.62
2023-09-23T14:05:28.466Z,65.19
2023-09-23T14:07:58.922Z,65.47
2023-09-23T14:10:29.933Z,65.89
2023-09-23T14:13:00.302Z,65.67
2023-09-23T14:15:32.001Z,65.99
2023-09-23T14:18:07.633Z,64.64
2023-09-23T14:20:39.385Z,63.29
2023-09-23T14:23:10.086Z,61.96
2023-09-23T14:25:40.523Z,61.12
2023-09-23T14:28:10.838Z,60.92
2023-09-23T14:30:41.102Z,61.83
2023-09-23T14:33:14.145Z,63.96
2023-09-23T14:35:44.732Z,64.67
2023-09-23T14:38:15.095Z,65.12
2023-09-23T14:40:45.626Z,65.43
2023-09-23T14:43:15.972Z,65.71
2023-09-23T14:45:46.445Z,65.70
2023-09-23T14:48:19.585Z,65.76
2023-09-23T14:50:50.681Z,65.91
2023-09-23T14:53:20.828Z,65.98
2023-09-23T14:55:51.610Z,66.07
2023-09-23T14:58:21.964Z,66.13
2023-09-23T15:00:52.705Z,64.16
2023-09-23T15:03:26.665Z,62.34
2023-09-23T15:05:57.481Z,62.38
2023-09-23T15:08:27.961Z,61.79
2023-09-23T15:10:58.611Z,61.50
2023-09-23T15:13:29.118Z,61.49
2023-09-23T15:16:03.750Z,61.44
2023-09-23T15:18:37.297Z,61.37
2023-09-23T15:21:08.565Z,60.93
2023-09-23T15:23:39.834Z,60.76
2023-09-23T15:26:11.048Z,60.96
2023-09-23T15:28:42.190Z,61.04
2023-09-23T15:31:14.660Z,60.68
2023-09-23T15:33:47.875Z,60.30
2023-09-23T15:36:19.421Z,60.87
2023-09-23T15:38:50.395Z,61.60
2023-09-23T15:41:20.731Z,63.92
2023-09-23T15:43:51.276Z,64.38
2023-09-23T15:46:21.867Z,65.03
2023-09-23T15:48:54.819Z,65.21
2023-09-23T15:51:25.327Z,65.13
2023-09-23T15:53:56.675Z,65.50
2023-09-23T15:56:28.305Z,65.54
2023-09-23T15:58:58.559Z,65.64
2023-09-23T16:01:29.461Z,65.73
2023-09-23T16:04:02.650Z,65.81
2023-09-23T16:06:33.412Z,65.80
2023-09-23T16:09:05.500Z,65.87
2023-09-23T16:11:36.263Z,65.61
2023-09-23T16:14:07.773Z,63.59
2023-09-23T16:16:38.449Z,63.38
2023-09-23T16:19:11.471Z,63.78
2023-09-23T16:21:41.999Z,64.59
2023-09-23T16:24:12.650Z,64.82
2023-09-23T16:26:43.838Z,65.34
2023-09-23T16:29:14.740Z,65.45
2023-09-23T16:31:46.285Z,65.74
2023-09-23T16:34:19.603Z,66.12
2023-09-23T16:36:50.802Z,66.34
2023-09-23T16:39:22.102Z,66.50
2023-09-23T16:41:52.568Z,66.54
2023-09-23T16:44:25.114Z,66.24
2023-09-23T16:46:58.676Z,66.34
2023-09-23T16:49:31.863Z,66.25
2023-09-23T16:52:03.315Z,66.38
2023-09-23T16:54:36.697Z,66.76
2023-09-23T16:57:07.396Z,66.65
2023-09-23T16:59:38.670Z,65.85
2023-09-23T17:02:15.128Z,65.63
2023-09-23T17:04:50.459Z,65.33
2023-09-23T17:07:24.296Z,65.45
2023-09-23T17:09:57.505Z,65.50
2023-09-23T17:12:28.228Z,65.94
2023-09-23T17:14:58.796Z,65.70
2023-09-23T17:17:30.964Z,66.06
2023-09-23T17:20:05.435Z,66.01
2023-09-23T17:22:38.752Z,66.15
2023-09-23T17:25:10.195Z,66.23
2023-09-23T17:27:40.579Z,66.09
2023-09-23T17:30:12.544Z,65.86
2023-09-23T17:32:43.702Z,65.74
2023-09-23T17:35:17.309Z,65.73
2023-09-23T17:37:47.771Z,65.60
2023-09-23T17:40:18.734Z,65.48
2023-09-23T17:42:52.657Z,65.45
2023-09-23T17:45:23.735Z,65.79
2023-09-23T17:47:55.133Z,66.24
2023-09-23T17:50:30.253Z,66.33
2023-09-23T17:53:01.613Z,66.30
2023-09-23T17:55:32.308Z,66.50
2023-09-23T17:58:03.373Z,66.55
2023-09-23T18:00:33.908Z,66.58
2023-09-23T18:03:05.454Z,66.75
2023-09-23T18:05:41.622Z,66.62
2023-09-23T18:08:14.193Z,66.74
2023-09-23T18:10:45.180Z,67.41
2023-09-23T18:13:17.694Z,67.05
2023-09-23T18:15:51.073Z,66.75
2023-09-23T18:18:23.646Z,67.51
2023-09-23T18:21:00.453Z,67.20
2023-09-23T18:23:31.447Z,66.83
2023-09-23T18:26:01.876Z,66.84
2023-09-23T18:28:32.365Z,66.99
2023-09-23T18:31:04.544Z,66.86
2023-09-23T18:33:35.330Z,66.93
2023-09-23T18:36:09.366Z,66.79
2023-09-23T18:38:40.319Z,66.76
2023-09-23T18:41:11.221Z,66.78
2023-09-23T18:43:41.786Z,66.93
2023-09-23T18:46:12.686Z,66.53
2023-09-23T18:48:43.775Z,66.60
2023-09-23T18:51:16.966Z,66.62
2023-09-23T18:53:47.859Z,66.69
2023-09-23T18:56:18.466Z,66.67
2023-09-23T18:58:49.610Z,66.80
2023-09-23T19:01:19.822Z,66.78
2023-09-23T19:03:51.494Z,66.86
2023-09-23T19:06:25.016Z,66.52
2023-09-23T19:08:55.606Z,66.83
2023-09-23T19:11:31.384Z,66.84
2023-09-23T19:14:02.581Z,66.99
2023-09-23T19:16:33.337Z,66.92
2023-09-23T19:19:04.418Z,66.88
2023-09-23T19:21:39.830Z,66.64
2023-09-23T19:24:13.037Z,66.70
2023-09-23T19:26:56.327Z,66.54
2023-09-23T19:29:28.192Z,66.59
2023-09-23T19:32:03.591Z,66.44
2023-09-23T19:34:34.635Z,66.60
2023-09-23T19:37:08.024Z,66.59
2023-09-23T19:39:43.728Z,66.43
2023-09-23T19:42:18.968Z,66.87
2023-09-23T19:44:51.181Z,66.68
2023-09-23T19:47:25.885Z,66.53
2023-09-23T19:49:59.564Z,66.33
2023-09-23T19:52:38.959Z,66.34
2023-09-23T19:55:10.266Z,66.52
2023-09-23T19:57:42.478Z,66.35
2023-09-23T20:00:17.391Z,66.47
2023-09-23T20:02:49.346Z,66.52
2023-09-23T20:05:22.274Z,66.41
2023-09-23T20:07:59.162Z,66.48
2023-09-23T20:10:32.487Z,65.69
2023-09-23T20:13:08.250Z,63.56
2023-09-23T20:15:42.491Z,65.10
2023-09-23T20:18:13.834Z,65.34
2023-09-23T20:20:49.584Z,65.65
2023-09-23T20:23:27.481Z,66.09
2023-09-23T20:26:00.255Z,66.03
2023-09-23T20:28:31.718Z,66.10
2023-09-23T20:31:03.181Z,66.32
2023-09-23T20:33:34.062Z,66.47
2023-09-23T20:36:04.890Z,66.29
2023-09-23T20:38:40.729Z,66.28
2023-09-23T20:41:11.649Z,66.31
2023-09-23T20:43:44.130Z,66.49
2023-09-23T20:46:15.217Z,66.40
2023-09-23T20:48:45.893Z,66.23
2023-09-23T20:51:18.167Z,66.18
2023-09-23T20:53:52.181Z,66.32
2023-09-23T20:56:24.379Z,66.37
2023-09-23T20:58:57.967Z,66.12
2023-09-23T21:01:28.739Z,66.22
2023-09-23T21:04:00.068Z,66.24
2023-09-23T21:06:37.949Z,66.22
2023-09-23T21:09:17.201Z,66.00
2023-09-23T21:11:47.887Z,66.23
2023-09-23T21:14:20.286Z,66.38
2023-09-23T21:16:51.458Z,65.88
2023-09-23T21:19:23.304Z,65.93
2023-09-23T21:21:54.476Z,65.86
2023-09-23T21:24:28.419Z,65.99
2023-09-23T21:26:59.071Z,66.10
2023-09-23T21:29:29.738Z,66.30
2023-09-23T21:32:01.808Z,66.16
2023-09-23T21:34:34.100Z,66.21
2023-09-23T21:37:05.249Z,66.23
2023-09-23T21:39:40.382Z,66.45
2023-09-23T21:42:13.368Z,66.45
2023-09-23T21:44:44.235Z,66.47
2023-09-23T21:47:18.312Z,66.51
2023-09-23T21:49:49.676Z,66.59
2023-09-23T21:52:20.453Z,66.57
2023-09-23T21:54:53.865Z,66.62
2023-09-23T21:57:24.481Z,66.79
2023-09-23T21:59:57.884Z,66.71
2023-09-23T22:02:29.490Z,66.86
2023-09-23T22:05:01.386Z,66.94
2023-09-23T22:07:33.092Z,66.96
2023-09-23T22:10:06.526Z,66.81
2023-09-23T22:12:37.722Z,66.94
2023-09-23T22:15:09.792Z,67.11
2023-09-23T22:17:40.645Z,66.83
2023-09-23T22:20:16.835Z,66.92
2023-09-23T22:22:47.546Z,67.14
2023-09-23T22:25:22.400Z,67.11
2023-09-23T22:27:58.692Z,67.09
2023-09-23T22:30:32.462Z,67.04
2023-09-23T22:33:07.001Z,67.26
2023-09-23T22:35:47.122Z,67.29
2023-09-23T22:38:18.630Z,67.25
2023-09-23T22:40:52.938Z,67.25
2023-09-23T22:43:23.311Z,67.19
2023-09-23T22:45:53.748Z,67.15
2023-09-23T22:48:25.098Z,67.24
2023-09-23T22:50:56.381Z,67.32
2023-09-23T22:53:27.581Z,67.30
2023-09-23T22:56:00.563Z,67.28
2023-09-23T22:58:30.812Z,67.44
2023-09-23T23:01:01.942Z,67.46
2023-09-23T23:03:32.106Z,67.28
2023-09-23T23:06:08.381Z,67.36
2023-09-23T23:08:39.690Z,67.67
2023-09-23T23:11:16.503Z,67.52
2023-09-23T23:13:47.215Z,67.57
2023-09-23T23:16:19.794Z,67.62
2023-09-23T23:18:52.675Z,67.66
2023-09-23T23:21:23.280Z,67.64
2023-09-23T23:23:53.768Z,67.46
2023-09-23T23:26:26.993Z,67.55
2023-09-23T23:28:57.740Z,67.53
2023-09-23T23:31:28.979Z,67.58
2023-09-23T23:34:00.823Z,67.59
2023-09-23T23:36:32.291Z,67.51
2023-09-23T23:39:07.126Z,67.52
2023-09-23T23:41:40.020Z,67.50
2023-09-23T23:44:10.744Z,67.60
2023-09-23T23:46:43.304Z,67.63
2023-09-23T23:49:15.603Z,67.76
2023-09-23T23:51:46.289Z,67.67
2023-09-23T23:54:17.786Z,67.57
2023-09-23T23:56:51.058Z,67.66
2023-09-23T23:59:21.323Z,67.80
